KLAX/LAX METAR and TAF weather

Enter ICAO airport designator
Station Type Date Time Source
KLAX METAR 2019/08/22 04:53 UTC NOAA

KLAX 220453Z 22005KT 10SM CLR 22/16 A2977 RMK AO2 SLP077 T02170161


Station Type Date Time Source
KLAX Decoded METAR 2019/08/22 04:53 UTC NOAA

Station name not available
Aug 22, 2019 - 12:53 AM EDT / 2019.08.22 0453 UTC
Wind: from the SW (220 degrees) at 6 MPH (5 KT):0
Visibility: 10 mile(s):0
Sky conditions: clear
Temperature: 71.1 F (21.7 C)
Dew Point: 61.0 F (16.1 C)
Relative Humidity: 70%
Pressure (altimeter): 29.77 in. Hg (1008 hPa)
ob: KLAX 220453Z 22005KT 10SM CLR 22/16 A2977 RMK AO2 SLP077 T02170161
cycle: 5

Station Type Date Time Source
KLAX TAF 2019/08/22 06:35 UTC NOAA

TAF KLAX 220535Z 2206/2312 VRB03KT P6SM SKC
FM221200 12005KT P6SM SKC
FM221700 VRB03KT P6SM SKC
FM221900 26010KT P6SM SKC
FM230300 VRB03KT P6SM BKN006
FM230900 VRB03KT P6SM OVC010

Example: see airport list